sensor_id;sensor_type;location;lat;lon;timestamp;P1;durP1;ratioP1;P2;durP2;ratioP2
27025;SDS011;14565;48.626;8.978;2022-07-30T00:02:04;5.70;;;3.95;;
27025;SDS011;14565;48.626;8.978;2022-07-30T00:04:30;6.20;;;3.80;;
27025;SDS011;14565;48.626;8.978;2022-07-30T00:06:59;4.65;;;3.63;;
27025;SDS011;14565;48.626;8.978;2022-07-30T00:09:25;5.00;;;3.70;;
27025;SDS011;14565;48.626;8.978;2022-07-30T00:11:50;4.07;;;3.45;;
27025;SDS011;14565;48.626;8.978;2022-07-30T00:14:16;3.97;;;3.50;;
27025;SDS011;14565;48.626;8.978;2022-07-30T00:16:42;8.40;;;3.67;;
27025;SDS011;14565;48.626;8.978;2022-07-30T00:19:08;5.10;;;3.45;;
27025;SDS011;14565;48.626;8.978;2022-07-30T00:21:34;5.07;;;3.17;;
27025;SDS011;14565;48.626;8.978;2022-07-30T00:23:59;8.70;;;3.55;;
27025;SDS011;14565;48.626;8.978;2022-07-30T00:26:25;5.63;;;3.40;;
27025;SDS011;14565;48.626;8.978;2022-07-30T00:28:51;4.07;;;3.67;;
27025;SDS011;14565;48.626;8.978;2022-07-30T00:31:16;6.22;;;3.40;;
27025;SDS011;14565;48.626;8.978;2022-07-30T00:33:42;7.45;;;3.97;;
27025;SDS011;14565;48.626;8.978;2022-07-30T00:36:08;6.93;;;3.70;;
27025;SDS011;14565;48.626;8.978;2022-07-30T00:38:33;5.00;;;3.10;;
27025;SDS011;14565;48.626;8.978;2022-07-30T00:40:59;6.32;;;3.55;;
27025;SDS011;14565;48.626;8.978;2022-07-30T00:43:25;4.05;;;3.63;;
27025;SDS011;14565;48.626;8.978;2022-07-30T00:45:50;6.60;;;3.40;;
27025;SDS011;14565;48.626;8.978;2022-07-30T00:48:16;9.90;;;3.80;;
27025;SDS011;14565;48.626;8.978;2022-07-30T00:50:42;6.45;;;3.30;;
27025;SDS011;14565;48.626;8.978;2022-07-30T00:53:08;5.07;;;3.10;;
27025;SDS011;14565;48.626;8.978;2022-07-30T00:55:34;6.45;;;3.30;;
27025;SDS011;14565;48.626;8.978;2022-07-30T00:58:00;7.30;;;3.10;;
27025;SDS011;14565;48.626;8.978;2022-07-30T01:00:26;5.15;;;3.05;;
27025;SDS011;14565;48.626;8.978;2022-07-30T01:02:52;6.60;;;3.45;;
27025;SDS011;14565;48.626;8.978;2022-07-30T01:05:18;4.68;;;3.45;;
27025;SDS011;14565;48.626;8.978;2022-07-30T01:07:44;3.90;;;3.13;;
27025;SDS011;14565;48.626;8.978;2022-07-30T01:10:11;3.88;;;3.10;;
27025;SDS011;14565;48.626;8.978;2022-07-30T01:12:38;3.42;;;2.97;;
27025;SDS011;14565;48.626;8.978;2022-07-30T01:15:05;4.32;;;3.03;;
27025;SDS011;14565;48.626;8.978;2022-07-30T01:17:33;3.50;;;3.20;;
27025;SDS011;14565;48.626;8.978;2022-07-30T01:20:02;4.38;;;3.00;;
27025;SDS011;14565;48.626;8.978;2022-07-30T01:27:51;8.20;;;3.22;;
27025;SDS011;14565;48.626;8.978;2022-07-30T01:30:22;6.82;;;3.83;;
27025;SDS011;14565;48.626;8.978;2022-07-30T01:32:52;3.95;;;3.10;;
27025;SDS011;14565;48.626;8.978;2022-07-30T01:37:47;3.80;;;3.38;;
27025;SDS011;14565;48.626;8.978;2022-07-30T01:40:15;4.38;;;3.60;;
27025;SDS011;14565;48.626;8.978;2022-07-30T01:42:41;4.97;;;3.30;;
27025;SDS011;14565;48.626;8.978;2022-07-30T01:45:08;6.63;;;3.40;;
27025;SDS011;14565;48.626;8.978;2022-07-30T01:47:37;4.22;;;3.55;;
27025;SDS011;14565;48.626;8.978;2022-07-30T01:50:05;6.20;;;3.75;;
27025;SDS011;14565;48.626;8.978;2022-07-30T01:52:37;4.78;;;3.42;;
27025;SDS011;14565;48.626;8.978;2022-07-30T01:57:32;5.72;;;3.30;;
27025;SDS011;14565;48.626;8.978;2022-07-30T02:00:01;4.85;;;3.70;;
27025;SDS011;14565;48.626;8.978;2022-07-30T02:02:29;6.13;;;3.63;;
27025;SDS011;14565;48.626;8.978;2022-07-30T02:04:55;5.75;;;3.58;;
27025;SDS011;14565;48.626;8.978;2022-07-30T02:07:55;5.38;;;3.60;;
27025;SDS011;14565;48.626;8.978;2022-07-30T02:10:18;5.22;;;3.83;;
27025;SDS011;14565;48.626;8.978;2022-07-30T02:12:51;4.88;;;3.30;;
27025;SDS011;14565;48.626;8.978;2022-07-30T02:15:34;6.03;;;3.95;;
27025;SDS011;14565;48.626;8.978;2022-07-30T02:20:59;6.75;;;4.13;;
27025;SDS011;14565;48.626;8.978;2022-07-30T02:23:27;4.93;;;3.97;;
27025;SDS011;14565;48.626;8.978;2022-07-30T02:25:55;6.60;;;4.40;;
27025;SDS011;14565;48.626;8.978;2022-07-30T02:28:24;6.05;;;4.20;;
27025;SDS011;14565;48.626;8.978;2022-07-30T02:30:55;6.10;;;4.57;;
27025;SDS011;14565;48.626;8.978;2022-07-30T02:33:25;5.18;;;4.45;;
27025;SDS011;14565;48.626;8.978;2022-07-30T02:35:54;4.80;;;4.40;;
27025;SDS011;14565;48.626;8.978;2022-07-30T02:38:22;8.90;;;4.53;;
27025;SDS011;14565;48.626;8.978;2022-07-30T02:40:51;7.32;;;4.82;;
27025;SDS011;14565;48.626;8.978;2022-07-30T02:43:24;7.80;;;4.57;;
27025;SDS011;14565;48.626;8.978;2022-07-30T02:45:51;4.93;;;4.47;;
27025;SDS011;14565;48.626;8.978;2022-07-30T02:48:18;6.93;;;4.93;;
27025;SDS011;14565;48.626;8.978;2022-07-30T02:50:46;6.28;;;4.40;;
27025;SDS011;14565;48.626;8.978;2022-07-30T02:53:14;6.03;;;4.90;;
27025;SDS011;14565;48.626;8.978;2022-07-30T02:55:42;5.82;;;5.00;;
27025;SDS011;14565;48.626;8.978;2022-07-30T02:58:09;6.95;;;5.47;;
27025;SDS011;14565;48.626;8.978;2022-07-30T03:00:36;5.30;;;4.72;;
27025;SDS011;14565;48.626;8.978;2022-07-30T03:03:06;6.10;;;5.10;;
27025;SDS011;14565;48.626;8.978;2022-07-30T03:05:32;7.05;;;5.28;;
27025;SDS011;14565;48.626;8.978;2022-07-30T03:07:59;7.30;;;5.47;;
27025;SDS011;14565;48.626;8.978;2022-07-30T03:10:26;7.90;;;5.13;;
27025;SDS011;14565;48.626;8.978;2022-07-30T03:12:52;7.90;;;5.50;;
27025;SDS011;14565;48.626;8.978;2022-07-30T03:15:20;6.90;;;5.90;;
27025;SDS011;14565;48.626;8.978;2022-07-30T03:17:48;6.82;;;6.03;;
27025;SDS011;14565;48.626;8.978;2022-07-30T03:20:17;6.20;;;5.60;;
27025;SDS011;14565;48.626;8.978;2022-07-30T03:22:47;9.05;;;6.32;;
27025;SDS011;14565;48.626;8.978;2022-07-30T03:25:17;7.97;;;5.70;;
27025;SDS011;14565;48.626;8.978;2022-07-30T03:27:46;6.60;;;5.93;;
27025;SDS011;14565;48.626;8.978;2022-07-30T03:30:14;9.07;;;6.13;;
27025;SDS011;14565;48.626;8.978;2022-07-30T03:32:40;9.93;;;6.47;;
27025;SDS011;14565;48.626;8.978;2022-07-30T03:35:06;9.63;;;6.25;;
27025;SDS011;14565;48.626;8.978;2022-07-30T03:37:34;8.23;;;6.40;;
27025;SDS011;14565;48.626;8.978;2022-07-30T03:40:02;7.47;;;5.63;;
27025;SDS011;14565;48.626;8.978;2022-07-30T03:42:29;10.80;;;6.80;;
27025;SDS011;14565;48.626;8.978;2022-07-30T03:44:56;9.23;;;6.97;;
27025;SDS011;14565;48.626;8.978;2022-07-30T03:47:22;8.48;;;6.10;;
27025;SDS011;14565;48.626;8.978;2022-07-30T03:49:48;6.85;;;6.15;;
27025;SDS011;14565;48.626;8.978;2022-07-30T03:52:15;9.63;;;6.10;;
27025;SDS011;14565;48.626;8.978;2022-07-30T03:54:41;8.00;;;6.13;;
27025;SDS011;14565;48.626;8.978;2022-07-30T03:57:08;8.27;;;6.38;;
27025;SDS011;14565;48.626;8.978;2022-07-30T03:59:33;9.95;;;7.07;;
27025;SDS011;14565;48.626;8.978;2022-07-30T04:02:00;9.10;;;6.65;;
27025;SDS011;14565;48.626;8.978;2022-07-30T04:04:27;10.25;;;6.55;;
27025;SDS011;14565;48.626;8.978;2022-07-30T04:06:54;10.15;;;6.82;;
27025;SDS011;14565;48.626;8.978;2022-07-30T04:09:23;8.13;;;6.20;;
27025;SDS011;14565;48.626;8.978;2022-07-30T04:11:49;8.20;;;5.82;;
27025;SDS011;14565;48.626;8.978;2022-07-30T04:14:16;11.32;;;6.20;;
27025;SDS011;14565;48.626;8.978;2022-07-30T04:19:33;10.60;;;6.28;;
27025;SDS011;14565;48.626;8.978;2022-07-30T04:22:02;7.05;;;5.60;;
27025;SDS011;14565;48.626;8.978;2022-07-30T04:24:30;13.80;;;6.57;;
27025;SDS011;14565;48.626;8.978;2022-07-30T04:26:57;7.78;;;5.57;;
27025;SDS011;14565;48.626;8.978;2022-07-30T04:29:24;10.63;;;5.97;;
27025;SDS011;14565;48.626;8.978;2022-07-30T04:31:50;8.23;;;6.03;;
27025;SDS011;14565;48.626;8.978;2022-07-30T04:34:17;11.45;;;5.70;;
27025;SDS011;14565;48.626;8.978;2022-07-30T04:36:44;10.93;;;5.53;;
27025;SDS011;14565;48.626;8.978;2022-07-30T04:39:10;8.70;;;4.97;;
27025;SDS011;14565;48.626;8.978;2022-07-30T04:41:36;7.90;;;5.18;;
27025;SDS011;14565;48.626;8.978;2022-07-30T04:44:01;9.80;;;5.05;;
27025;SDS011;14565;48.626;8.978;2022-07-30T04:46:27;6.18;;;4.50;;
27025;SDS011;14565;48.626;8.978;2022-07-30T04:48:53;8.73;;;4.90;;
27025;SDS011;14565;48.626;8.978;2022-07-30T04:51:21;6.65;;;4.53;;
27025;SDS011;14565;48.626;8.978;2022-07-30T04:53:50;10.60;;;4.72;;
27025;SDS011;14565;48.626;8.978;2022-07-30T04:56:19;6.75;;;4.57;;
27025;SDS011;14565;48.626;8.978;2022-07-30T04:58:45;7.27;;;4.57;;
27025;SDS011;14565;48.626;8.978;2022-07-30T05:01:14;7.88;;;4.78;;
27025;SDS011;14565;48.626;8.978;2022-07-30T05:03:45;15.38;;;5.28;;
27025;SDS011;14565;48.626;8.978;2022-07-30T05:06:11;5.85;;;4.75;;
27025;SDS011;14565;48.626;8.978;2022-07-30T05:08:38;6.45;;;4.45;;
27025;SDS011;14565;48.626;8.978;2022-07-30T05:11:04;7.68;;;5.05;;
27025;SDS011;14565;48.626;8.978;2022-07-30T05:13:29;9.52;;;4.75;;
27025;SDS011;14565;48.626;8.978;2022-07-30T05:15:55;7.50;;;4.80;;
27025;SDS011;14565;48.626;8.978;2022-07-30T05:18:21;10.05;;;4.28;;
27025;SDS011;14565;48.626;8.978;2022-07-30T05:20:46;9.68;;;5.45;;
27025;SDS011;14565;48.626;8.978;2022-07-30T05:23:12;8.70;;;4.65;;
27025;SDS011;14565;48.626;8.978;2022-07-30T05:25:38;7.82;;;5.18;;
27025;SDS011;14565;48.626;8.978;2022-07-30T05:28:04;11.32;;;5.30;;
27025;SDS011;14565;48.626;8.978;2022-07-30T05:30:29;9.05;;;5.18;;
27025;SDS011;14565;48.626;8.978;2022-07-30T05:32:55;9.98;;;4.57;;
27025;SDS011;14565;48.626;8.978;2022-07-30T05:35:21;8.60;;;4.93;;
27025;SDS011;14565;48.626;8.978;2022-07-30T05:37:46;9.57;;;4.70;;
27025;SDS011;14565;48.626;8.978;2022-07-30T05:40:12;8.27;;;5.10;;
27025;SDS011;14565;48.626;8.978;2022-07-30T05:42:38;9.82;;;5.28;;
27025;SDS011;14565;48.626;8.978;2022-07-30T05:45:04;8.32;;;4.68;;
27025;SDS011;14565;48.626;8.978;2022-07-30T05:47:30;12.57;;;5.00;;
27025;SDS011;14565;48.626;8.978;2022-07-30T05:49:56;5.13;;;4.60;;
27025;SDS011;14565;48.626;8.978;2022-07-30T05:52:21;7.60;;;4.55;;
27025;SDS011;14565;48.626;8.978;2022-07-30T05:54:47;5.78;;;4.25;;
27025;SDS011;14565;48.626;8.978;2022-07-30T05:57:12;8.57;;;4.50;;
27025;SDS011;14565;48.626;8.978;2022-07-30T05:59:38;8.75;;;6.18;;
27025;SDS011;14565;48.626;8.978;2022-07-30T06:02:04;8.68;;;5.00;;
27025;SDS011;14565;48.626;8.978;2022-07-30T06:04:30;6.40;;;4.07;;
27025;SDS011;14565;48.626;8.978;2022-07-30T06:06:56;10.00;;;4.45;;
27025;SDS011;14565;48.626;8.978;2022-07-30T06:09:21;6.80;;;4.68;;
27025;SDS011;14565;48.626;8.978;2022-07-30T06:11:47;7.88;;;4.55;;
27025;SDS011;14565;48.626;8.978;2022-07-30T06:14:13;6.30;;;4.15;;
27025;SDS011;14565;48.626;8.978;2022-07-30T06:16:38;7.30;;;4.40;;
27025;SDS011;14565;48.626;8.978;2022-07-30T06:19:04;6.95;;;3.80;;
27025;SDS011;14565;48.626;8.978;2022-07-30T06:21:29;6.43;;;3.88;;
27025;SDS011;14565;48.626;8.978;2022-07-30T06:23:55;7.10;;;4.10;;
27025;SDS011;14565;48.626;8.978;2022-07-30T06:26:21;6.78;;;4.70;;
27025;SDS011;14565;48.626;8.978;2022-07-30T06:28:46;7.35;;;4.85;;
27025;SDS011;14565;48.626;8.978;2022-07-30T06:31:12;6.00;;;4.55;;
27025;SDS011;14565;48.626;8.978;2022-07-30T06:33:38;6.03;;;3.65;;
27025;SDS011;14565;48.626;8.978;2022-07-30T06:36:04;9.80;;;5.07;;
27025;SDS011;14565;48.626;8.978;2022-07-30T06:38:30;6.97;;;4.60;;
27025;SDS011;14565;48.626;8.978;2022-07-30T06:40:56;6.93;;;5.00;;
27025;SDS011;14565;48.626;8.978;2022-07-30T06:43:22;9.48;;;4.97;;
27025;SDS011;14565;48.626;8.978;2022-07-30T06:45:47;10.77;;;5.43;;
27025;SDS011;14565;48.626;8.978;2022-07-30T06:48:13;8.32;;;5.07;;
27025;SDS011;14565;48.626;8.978;2022-07-30T06:50:39;9.30;;;6.35;;
27025;SDS011;14565;48.626;8.978;2022-07-30T06:53:05;7.50;;;6.10;;
27025;SDS011;14565;48.626;8.978;2022-07-30T06:55:31;7.28;;;5.53;;
27025;SDS011;14565;48.626;8.978;2022-07-30T06:57:57;9.15;;;6.18;;
27025;SDS011;14565;48.626;8.978;2022-07-30T07:00:23;7.18;;;4.78;;
27025;SDS011;14565;48.626;8.978;2022-07-30T07:02:49;7.65;;;4.93;;
27025;SDS011;14565;48.626;8.978;2022-07-30T07:05:15;8.60;;;4.28;;
27025;SDS011;14565;48.626;8.978;2022-07-30T07:07:41;5.85;;;4.57;;
27025;SDS011;14565;48.626;8.978;2022-07-30T07:10:07;11.20;;;5.03;;
27025;SDS011;14565;48.626;8.978;2022-07-30T07:12:34;9.55;;;5.75;;
27025;SDS011;14565;48.626;8.978;2022-07-30T07:14:59;6.80;;;3.90;;
27025;SDS011;14565;48.626;8.978;2022-07-30T07:17:25;7.63;;;4.63;;
27025;SDS011;14565;48.626;8.978;2022-07-30T07:19:51;4.93;;;4.22;;
27025;SDS011;14565;48.626;8.978;2022-07-30T07:22:16;6.65;;;3.55;;
27025;SDS011;14565;48.626;8.978;2022-07-30T07:24:42;8.85;;;4.70;;
27025;SDS011;14565;48.626;8.978;2022-07-30T07:27:07;5.85;;;4.10;;
27025;SDS011;14565;48.626;8.978;2022-07-30T07:29:33;5.85;;;3.78;;
27025;SDS011;14565;48.626;8.978;2022-07-30T07:31:59;6.43;;;3.90;;
27025;SDS011;14565;48.626;8.978;2022-07-30T07:34:24;7.15;;;3.75;;
27025;SDS011;14565;48.626;8.978;2022-07-30T07:36:50;6.13;;;3.40;;
27025;SDS011;14565;48.626;8.978;2022-07-30T07:39:16;5.55;;;3.25;;
27025;SDS011;14565;48.626;8.978;2022-07-30T07:41:41;6.38;;;3.60;;
27025;SDS011;14565;48.626;8.978;2022-07-30T07:44:07;6.10;;;3.13;;
27025;SDS011;14565;48.626;8.978;2022-07-30T07:46:33;5.53;;;3.22;;
27025;SDS011;14565;48.626;8.978;2022-07-30T07:48:58;6.50;;;2.88;;
27025;SDS011;14565;48.626;8.978;2022-07-30T07:51:24;4.72;;;3.00;;
27025;SDS011;14565;48.626;8.978;2022-07-30T07:53:49;7.40;;;3.25;;
27025;SDS011;14565;48.626;8.978;2022-07-30T07:56:15;6.20;;;3.22;;
27025;SDS011;14565;48.626;8.978;2022-07-30T07:58:41;5.10;;;2.90;;
27025;SDS011;14565;48.626;8.978;2022-07-30T08:01:07;4.50;;;2.67;;
27025;SDS011;14565;48.626;8.978;2022-07-30T08:03:32;5.80;;;2.88;;
27025;SDS011;14565;48.626;8.978;2022-07-30T08:05:58;7.30;;;3.40;;
27025;SDS011;14565;48.626;8.978;2022-07-30T08:08:25;5.45;;;3.78;;
27025;SDS011;14565;48.626;8.978;2022-07-30T08:10:51;6.93;;;3.58;;
27025;SDS011;14565;48.626;8.978;2022-07-30T08:13:16;7.40;;;3.35;;
27025;SDS011;14565;48.626;8.978;2022-07-30T08:15:42;7.70;;;3.63;;
27025;SDS011;14565;48.626;8.978;2022-07-30T08:18:08;7.38;;;3.58;;
27025;SDS011;14565;48.626;8.978;2022-07-30T08:20:35;7.50;;;2.60;;
27025;SDS011;14565;48.626;8.978;2022-07-30T08:23:01;5.18;;;2.60;;
27025;SDS011;14565;48.626;8.978;2022-07-30T08:25:28;5.63;;;2.53;;
27025;SDS011;14565;48.626;8.978;2022-07-30T08:27:53;3.90;;;2.30;;
27025;SDS011;14565;48.626;8.978;2022-07-30T08:30:19;10.60;;;3.03;;
27025;SDS011;14565;48.626;8.978;2022-07-30T08:32:45;7.30;;;4.40;;
27025;SDS011;14565;48.626;8.978;2022-07-30T08:35:10;5.25;;;2.63;;
27025;SDS011;14565;48.626;8.978;2022-07-30T08:37:36;2.40;;;2.17;;
27025;SDS011;14565;48.626;8.978;2022-07-30T08:40:05;4.32;;;2.28;;
27025;SDS011;14565;48.626;8.978;2022-07-30T08:42:32;4.57;;;2.30;;
27025;SDS011;14565;48.626;8.978;2022-07-30T08:44:59;2.72;;;1.90;;
27025;SDS011;14565;48.626;8.978;2022-07-30T08:47:26;4.22;;;2.50;;
27025;SDS011;14565;48.626;8.978;2022-07-30T08:49:56;4.15;;;2.25;;
27025;SDS011;14565;48.626;8.978;2022-07-30T08:52:26;8.10;;;2.50;;
27025;SDS011;14565;48.626;8.978;2022-07-30T08:54:52;3.28;;;2.42;;
27025;SDS011;14565;48.626;8.978;2022-07-30T08:57:19;5.07;;;2.50;;
27025;SDS011;14565;48.626;8.978;2022-07-30T08:59:45;5.25;;;1.95;;
27025;SDS011;14565;48.626;8.978;2022-07-30T09:02:12;6.57;;;2.28;;
27025;SDS011;14565;48.626;8.978;2022-07-30T09:04:38;4.70;;;2.10;;
27025;SDS011;14565;48.626;8.978;2022-07-30T09:07:04;5.20;;;2.00;;
27025;SDS011;14565;48.626;8.978;2022-07-30T09:09:29;6.28;;;2.10;;
27025;SDS011;14565;48.626;8.978;2022-07-30T09:11:55;3.63;;;1.98;;
27025;SDS011;14565;48.626;8.978;2022-07-30T09:14:20;8.25;;;2.22;;
27025;SDS011;14565;48.626;8.978;2022-07-30T09:16:46;4.80;;;1.83;;
27025;SDS011;14565;48.626;8.978;2022-07-30T09:19:21;4.22;;;2.53;;
27025;SDS011;14565;48.626;8.978;2022-07-30T09:21:57;2.95;;;1.90;;
27025;SDS011;14565;48.626;8.978;2022-07-30T09:24:25;4.00;;;2.22;;
27025;SDS011;14565;48.626;8.978;2022-07-30T09:29:28;6.82;;;1.90;;
27025;SDS011;14565;48.626;8.978;2022-07-30T09:36:51;4.80;;;2.10;;
27025;SDS011;14565;48.626;8.978;2022-07-30T09:42:16;4.85;;;1.80;;
27025;SDS011;14565;48.626;8.978;2022-07-30T09:44:42;3.72;;;1.73;;
27025;SDS011;14565;48.626;8.978;2022-07-30T09:47:08;3.92;;;1.92;;
27025;SDS011;14565;48.626;8.978;2022-07-30T09:49:33;2.40;;;1.67;;
27025;SDS011;14565;48.626;8.978;2022-07-30T09:51:59;5.10;;;2.10;;
27025;SDS011;14565;48.626;8.978;2022-07-30T09:57:11;6.70;;;2.33;;
27025;SDS011;14565;48.626;8.978;2022-07-30T09:59:36;4.30;;;1.83;;
27025;SDS011;14565;48.626;8.978;2022-07-30T10:02:02;3.20;;;2.08;;
27025;SDS011;14565;48.626;8.978;2022-07-30T10:04:29;5.38;;;1.80;;
27025;SDS011;14565;48.626;8.978;2022-07-30T10:06:56;3.83;;;1.40;;
27025;SDS011;14565;48.626;8.978;2022-07-30T10:09:27;5.97;;;1.90;;
27025;SDS011;14565;48.626;8.978;2022-07-30T10:11:58;4.75;;;1.90;;
27025;SDS011;14565;48.626;8.978;2022-07-30T10:14:29;3.13;;;1.63;;
27025;SDS011;14565;48.626;8.978;2022-07-30T10:16:57;7.82;;;1.90;;
27025;SDS011;14565;48.626;8.978;2022-07-30T10:19:23;3.35;;;1.48;;
27025;SDS011;14565;48.626;8.978;2022-07-30T10:21:50;5.63;;;1.83;;
27025;SDS011;14565;48.626;8.978;2022-07-30T10:24:17;3.83;;;2.15;;
27025;SDS011;14565;48.626;8.978;2022-07-30T10:26:44;4.38;;;1.90;;
27025;SDS011;14565;48.626;8.978;2022-07-30T10:29:11;6.45;;;2.20;;
27025;SDS011;14565;48.626;8.978;2022-07-30T10:34:05;7.68;;;1.77;;
27025;SDS011;14565;48.626;8.978;2022-07-30T10:36:31;3.08;;;1.50;;
27025;SDS011;14565;48.626;8.978;2022-07-30T10:38:59;4.03;;;1.80;;
27025;SDS011;14565;48.626;8.978;2022-07-30T10:41:29;6.78;;;1.92;;
27025;SDS011;14565;48.626;8.978;2022-07-30T10:44:31;4.00;;;1.80;;
27025;SDS011;14565;48.626;8.978;2022-07-30T10:47:18;3.60;;;1.77;;
27025;SDS011;14565;48.626;8.978;2022-07-30T10:50:19;4.28;;;1.90;;
27025;SDS011;14565;48.626;8.978;2022-07-30T10:52:42;4.32;;;1.70;;
27025;SDS011;14565;48.626;8.978;2022-07-30T10:55:15;6.00;;;1.75;;
27025;SDS011;14565;48.626;8.978;2022-07-30T11:00:26;2.55;;;1.55;;
27025;SDS011;14565;48.626;8.978;2022-07-30T11:06:23;5.60;;;1.88;;
27025;SDS011;14565;48.626;8.978;2022-07-30T11:08:41;2.67;;;1.70;;
27025;SDS011;14565;48.626;8.978;2022-07-30T11:16:22;3.95;;;1.48;;
27025;SDS011;14565;48.626;8.978;2022-07-30T11:19:09;5.72;;;1.70;;
27025;SDS011;14565;48.626;8.978;2022-07-30T11:21:43;3.92;;;1.20;;
27025;SDS011;14565;48.626;8.978;2022-07-30T11:27:09;8.80;;;1.70;;
27025;SDS011;14565;48.626;8.978;2022-07-30T11:30:03;5.60;;;1.50;;
27025;SDS011;14565;48.626;8.978;2022-07-30T11:32:32;4.68;;;2.30;;
27025;SDS011;14565;48.626;8.978;2022-07-30T11:43:22;3.33;;;1.73;;
27025;SDS011;14565;48.626;8.978;2022-07-30T11:48:16;2.50;;;1.48;;
27025;SDS011;14565;48.626;8.978;2022-07-30T11:50:44;6.18;;;1.70;;
27025;SDS011;14565;48.626;8.978;2022-07-30T11:53:14;5.30;;;1.38;;
27025;SDS011;14565;48.626;8.978;2022-07-30T11:55:48;3.92;;;1.80;;
27025;SDS011;14565;48.626;8.978;2022-07-30T11:58:34;2.25;;;1.42;;
27025;SDS011;14565;48.626;8.978;2022-07-30T12:03:38;3.45;;;1.38;;
27025;SDS011;14565;48.626;8.978;2022-07-30T12:06:05;4.13;;;1.52;;
27025;SDS011;14565;48.626;8.978;2022-07-30T12:08:39;3.03;;;1.35;;
27025;SDS011;14565;48.626;8.978;2022-07-30T12:11:10;2.08;;;1.45;;
27025;SDS011;14565;48.626;8.978;2022-07-30T12:13:37;4.03;;;1.42;;
27025;SDS011;14565;48.626;8.978;2022-07-30T12:16:07;3.78;;;1.45;;
27025;SDS011;14565;48.626;8.978;2022-07-30T12:18:34;4.40;;;1.63;;
27025;SDS011;14565;48.626;8.978;2022-07-30T12:21:04;2.10;;;1.42;;
27025;SDS011;14565;48.626;8.978;2022-07-30T12:23:39;3.08;;;1.13;;
27025;SDS011;14565;48.626;8.978;2022-07-30T12:26:22;3.30;;;1.40;;
27025;SDS011;14565;48.626;8.978;2022-07-30T12:28:53;4.18;;;1.50;;
27025;SDS011;14565;48.626;8.978;2022-07-30T12:31:20;2.00;;;1.05;;
27025;SDS011;14565;48.626;8.978;2022-07-30T12:33:46;4.10;;;1.45;;
27025;SDS011;14565;48.626;8.978;2022-07-30T12:39:07;1.77;;;1.63;;
27025;SDS011;14565;48.626;8.978;2022-07-30T12:41:47;4.13;;;1.40;;
27025;SDS011;14565;48.626;8.978;2022-07-30T12:44:32;2.75;;;1.30;;
27025;SDS011;14565;48.626;8.978;2022-07-30T12:46:58;6.18;;;1.40;;
27025;SDS011;14565;48.626;8.978;2022-07-30T12:49:31;3.22;;;1.45;;
27025;SDS011;14565;48.626;8.978;2022-07-30T12:51:57;4.93;;;1.75;;
27025;SDS011;14565;48.626;8.978;2022-07-30T12:54:23;5.68;;;1.40;;
27025;SDS011;14565;48.626;8.978;2022-07-30T12:56:56;5.72;;;1.33;;
27025;SDS011;14565;48.626;8.978;2022-07-30T12:59:26;4.07;;;1.27;;
27025;SDS011;14565;48.626;8.978;2022-07-30T13:01:51;3.42;;;1.30;;
27025;SDS011;14565;48.626;8.978;2022-07-30T13:04:18;1.75;;;1.20;;
27025;SDS011;14565;48.626;8.978;2022-07-30T13:07:01;3.67;;;1.20;;
27025;SDS011;14565;48.626;8.978;2022-07-30T13:09:27;2.38;;;1.20;;
27025;SDS011;14565;48.626;8.978;2022-07-30T13:11:53;2.53;;;1.30;;
27025;SDS011;14565;48.626;8.978;2022-07-30T13:14:19;2.95;;;1.17;;
27025;SDS011;14565;48.626;8.978;2022-07-30T13:16:45;3.67;;;1.50;;
27025;SDS011;14565;48.626;8.978;2022-07-30T13:19:11;1.95;;;1.15;;
27025;SDS011;14565;48.626;8.978;2022-07-30T13:21:37;2.72;;;1.00;;
27025;SDS011;14565;48.626;8.978;2022-07-30T13:24:04;3.17;;;1.50;;
27025;SDS011;14565;48.626;8.978;2022-07-30T13:26:30;3.70;;;1.40;;
27025;SDS011;14565;48.626;8.978;2022-07-30T13:28:56;1.58;;;1.25;;
27025;SDS011;14565;48.626;8.978;2022-07-30T13:31:22;6.13;;;1.25;;
27025;SDS011;14565;48.626;8.978;2022-07-30T13:33:49;4.00;;;1.70;;
27025;SDS011;14565;48.626;8.978;2022-07-30T13:36:15;2.80;;;1.33;;
27025;SDS011;14565;48.626;8.978;2022-07-30T13:38:41;2.03;;;1.30;;
27025;SDS011;14565;48.626;8.978;2022-07-30T13:41:07;3.45;;;1.50;;
27025;SDS011;14565;48.626;8.978;2022-07-30T13:43:33;2.17;;;1.40;;
27025;SDS011;14565;48.626;8.978;2022-07-30T13:45:59;7.63;;;1.50;;
27025;SDS011;14565;48.626;8.978;2022-07-30T13:48:27;3.95;;;1.40;;
27025;SDS011;14565;48.626;8.978;2022-07-30T13:50:53;2.38;;;1.40;;
27025;SDS011;14565;48.626;8.978;2022-07-30T13:53:19;2.20;;;1.65;;
27025;SDS011;14565;48.626;8.978;2022-07-30T13:55:45;3.47;;;1.90;;
27025;SDS011;14565;48.626;8.978;2022-07-30T13:58:11;3.45;;;1.70;;
27025;SDS011;14565;48.626;8.978;2022-07-30T14:00:37;3.45;;;1.45;;
27025;SDS011;14565;48.626;8.978;2022-07-30T14:03:08;2.10;;;1.57;;
27025;SDS011;14565;48.626;8.978;2022-07-30T14:05:37;3.10;;;1.42;;
27025;SDS011;14565;48.626;8.978;2022-07-30T14:08:03;1.77;;;1.52;;
27025;SDS011;14565;48.626;8.978;2022-07-30T14:10:30;9.55;;;2.92;;
27025;SDS011;14565;48.626;8.978;2022-07-30T14:12:56;6.47;;;1.60;;
27025;SDS011;14565;48.626;8.978;2022-07-30T14:15:24;2.85;;;1.80;;
27025;SDS011;14565;48.626;8.978;2022-07-30T14:17:51;4.43;;;1.60;;
27025;SDS011;14565;48.626;8.978;2022-07-30T14:20:17;3.80;;;1.30;;
27025;SDS011;14565;48.626;8.978;2022-07-30T14:22:43;2.50;;;1.50;;
27025;SDS011;14565;48.626;8.978;2022-07-30T14:25:09;5.85;;;1.50;;
27025;SDS011;14565;48.626;8.978;2022-07-30T14:27:35;2.95;;;1.55;;
27025;SDS011;14565;48.626;8.978;2022-07-30T14:30:02;3.60;;;1.50;;
27025;SDS011;14565;48.626;8.978;2022-07-30T14:32:30;5.97;;;1.48;;
27025;SDS011;14565;48.626;8.978;2022-07-30T14:34:55;3.42;;;1.80;;
27025;SDS011;14565;48.626;8.978;2022-07-30T14:37:21;3.92;;;1.60;;
27025;SDS011;14565;48.626;8.978;2022-07-30T14:39:47;4.25;;;1.33;;
27025;SDS011;14565;48.626;8.978;2022-07-30T14:42:12;2.97;;;1.50;;
27025;SDS011;14565;48.626;8.978;2022-07-30T14:44:38;3.60;;;1.42;;
27025;SDS011;14565;48.626;8.978;2022-07-30T14:47:04;2.60;;;1.70;;
27025;SDS011;14565;48.626;8.978;2022-07-30T14:49:30;1.38;;;1.20;;
27025;SDS011;14565;48.626;8.978;2022-07-30T14:51:55;3.90;;;1.10;;
27025;SDS011;14565;48.626;8.978;2022-07-30T14:54:21;2.10;;;1.15;;
27025;SDS011;14565;48.626;8.978;2022-07-30T14:56:47;2.63;;;1.40;;
27025;SDS011;14565;48.626;8.978;2022-07-30T14:59:13;1.85;;;1.33;;
27025;SDS011;14565;48.626;8.978;2022-07-30T15:01:38;4.32;;;1.20;;
27025;SDS011;14565;48.626;8.978;2022-07-30T15:04:05;2.17;;;1.10;;
27025;SDS011;14565;48.626;8.978;2022-07-30T15:06:33;4.45;;;1.20;;
27025;SDS011;14565;48.626;8.978;2022-07-30T15:09:00;4.32;;;1.70;;
27025;SDS011;14565;48.626;8.978;2022-07-30T15:11:26;2.15;;;1.10;;
27025;SDS011;14565;48.626;8.978;2022-07-30T15:13:51;1.70;;;1.00;;
27025;SDS011;14565;48.626;8.978;2022-07-30T15:16:17;4.65;;;1.20;;
27025;SDS011;14565;48.626;8.978;2022-07-30T15:18:43;3.22;;;1.20;;
27025;SDS011;14565;48.626;8.978;2022-07-30T15:21:09;1.35;;;0.90;;
27025;SDS011;14565;48.626;8.978;2022-07-30T15:23:36;2.28;;;1.20;;
27025;SDS011;14565;48.626;8.978;2022-07-30T15:26:02;1.73;;;1.10;;
27025;SDS011;14565;48.626;8.978;2022-07-30T15:28:28;2.78;;;1.05;;
27025;SDS011;14565;48.626;8.978;2022-07-30T15:30:54;3.42;;;1.08;;
27025;SDS011;14565;48.626;8.978;2022-07-30T15:33:20;3.08;;;1.25;;
27025;SDS011;14565;48.626;8.978;2022-07-30T15:35:46;3.00;;;1.40;;
27025;SDS011;14565;48.626;8.978;2022-07-30T15:38:12;1.95;;;1.15;;
27025;SDS011;14565;48.626;8.978;2022-07-30T15:40:38;1.35;;;1.10;;
27025;SDS011;14565;48.626;8.978;2022-07-30T15:43:04;1.67;;;1.13;;
27025;SDS011;14565;48.626;8.978;2022-07-30T15:45:29;3.53;;;1.30;;
27025;SDS011;14565;48.626;8.978;2022-07-30T15:47:55;7.70;;;1.25;;
27025;SDS011;14565;48.626;8.978;2022-07-30T15:50:21;1.92;;;1.15;;
27025;SDS011;14565;48.626;8.978;2022-07-30T15:52:47;2.53;;;0.88;;